Jard de las Marias, Puerto Rico
Current Conditions -  °F | °C
As of 11:50 AM on Sunday 21 Dec 2014 (Local Time) from TJBQ Reporting Station
Scattered Clouds Scattered Clouds  
Wind Chill: 82°   Ceiling: Unl
Heat Index: 85°   Visibility: 10mi
Dew Point: 68°   Wind: 18mph
Humidity: 62%   Direction: 90°E
Pressure: 30.1"   Gusts: 30mph
Location:  18.2539°N, 66.9876°W
Report Text: TJBQ 211550Z 09016G26KT 10SM SCT031 SCT037 28/20 A3010 RMK RWY 8 ATIS A
Loading
Personal Weather Stations






























Interactive Weather Map New forecast layout! Learn more

10-Day Weather Forecast

Advertisements
Track Severe Weather on mobile